Time;durP1;ratioP1;P1;durP2;ratioP2;P2;SDS_P1;SDS_P2;PMS_P1;PMS_P2;Temp;Humidity;BMP_temperature;BMP_pressure;BME280_temperature;BME280_humidity;BME280_pressure;Samples;Min_cycle;Max_cycle;Signal;HPM_P1;HPM_P2
2022/06/02 00:00:54;;;;;;;;;;;;;;;20.53;100.00;97909.44;5079523;28;19920;-59
2022/06/02 00:03:24;;;;;;;;;;;;;;;19.75;100.00;97905.41;5079544;28;19925;-59
2022/06/02 00:06:08;;;;;;;;;;;;;;;19.43;100.00;97900.53;5079542;28;19988;-59
2022/06/02 00:08:44;;;;;;;;;;;;;;;19.45;100.00;97895.56;5080883;28;19925;-58
2022/06/02 00:11:21;;;;;;;;;;;;;;;19.70;100.00;97898.25;5082812;28;19992;-59
2022/06/02 00:13:56;;;;;;;;;;;;;;;20.30;100.00;97898.06;5076189;28;19995;-59
2022/06/02 00:16:27;;;;;;;;;;;;;;;20.51;100.00;97906.28;5079308;28;19967;-59
2022/06/02 00:18:55;;;;;;;;;;;;;;;20.33;100.00;97910.97;5079172;28;19924;-58
2022/06/02 00:21:26;;;;;;;;;;;;;;;19.99;100.00;97910.28;5079200;28;19925;-58
2022/06/02 00:23:57;;;;;;;;;;;;;;;20.14;100.00;97923.31;5078978;28;19997;-58
2022/06/02 00:26:31;;;;;;;;;;;;;;;20.41;100.00;97922.91;5061363;28;19987;-58
2022/06/02 00:29:05;;;;;;;;;;;;;;;20.53;100.00;97912.16;5078933;28;19925;-58
2022/06/02 00:31:37;;;;;;;;;;;;;;;20.53;100.00;97928.44;5079813;28;19925;-58
2022/06/02 00:34:07;;;;;;;;;;;;;;;20.56;100.00;97926.97;5082271;28;19962;-58
2022/06/02 00:36:36;;;;;;;;;;;;;;;20.09;100.00;97929.69;5081024;28;19954;-58
2022/06/02 00:39:08;;;;;;;;;;;;;;;19.90;100.00;97921.94;5078776;28;19924;-59
2022/06/02 00:41:42;;;;;;;;;;;;;;;19.86;100.00;97922.91;5080311;28;19967;-58
2022/06/02 00:44:16;;;;;;;;;;;;;;;20.12;100.00;97930.97;5084630;28;20024;-58
2022/06/02 00:46:49;;;;;;;;;;;;;;;20.29;100.00;97920.91;5080675;28;19988;-59
2022/06/02 00:49:19;;;;;;;;;;;;;;;20.39;100.00;97919.75;5082309;28;20417;-59
2022/06/02 00:51:50;;;;;;;;;;;;;;;20.46;100.00;97930.84;5079358;28;19924;-59
2022/06/02 01:00:00;;;;;;;;;;;;;;;20.29;100.00;97945.31;5078657;28;19947;-59
2022/06/02 01:02:27;;;;;;;;;;;;;;;19.81;100.00;97942.84;5078988;28;19995;-59
2022/06/02 01:04:54;;;;;;;;;;;;;;;19.32;100.00;97952.25;5081987;28;20118;-59
2022/06/02 01:07:27;;;;;;;;;;;;;;;19.43;100.00;97962.81;5082200;28;19967;-59
2022/06/02 01:10:18;;;;;;;;;;;;;;;19.60;100.00;97969.00;5078663;28;19971;-59
2022/06/02 01:12:58;;;;;;;;;;;;;;;19.69;100.00;97969.00;5078607;28;19928;-59
2022/06/02 01:15:32;;;;;;;;;;;;;;;19.87;100.00;97978.69;5078690;28;19932;-60
2022/06/02 01:18:06;;;;;;;;;;;;;;;19.98;100.00;97979.97;5078550;28;19955;-59
2022/06/02 01:20:40;;;;;;;;;;;;;;;19.91;100.00;97972.31;5079669;28;19960;-59
2022/06/02 01:23:17;;;;;;;;;;;;;;;20.06;100.00;97970.22;5081846;28;19992;-59
2022/06/02 01:26:02;;;;;;;;;;;;;;;19.62;100.00;97972.19;5079416;28;19924;-59
2022/06/02 01:28:38;;;;;;;;;;;;;;;19.07;100.00;97969.28;5061406;28;19925;-59
2022/06/02 01:31:11;;;;;;;;;;;;;;;19.52;100.00;97967.13;5081905;28;19925;-59
2022/06/02 01:33:43;;;;;;;;;;;;;;;19.75;100.00;97957.69;5080256;28;19991;-59
2022/06/02 01:36:15;;;;;;;;;;;;;;;19.93;100.00;97958.44;5078344;28;20008;-59
2022/06/02 01:38:48;;;;;;;;;;;;;;;19.92;100.00;97954.97;5080802;28;20116;-59
2022/06/02 01:41:18;;;;;;;;;;;;;;;19.97;100.00;97966.72;5081759;28;19984;-59
2022/06/02 01:43:51;;;;;;;;;;;;;;;19.92;100.00;97970.41;5075493;28;19925;-59
2022/06/02 01:46:32;;;;;;;;;;;;;;;19.98;100.00;97979.97;5078064;28;19925;-59
2022/06/02 01:49:04;;;;;;;;;;;;;;;20.06;100.00;97976.44;5069539;28;19964;-58
2022/06/02 01:51:34;;;;;;;;;;;;;;;20.06;100.00;97971.00;5052060;28;20023;-59
2022/06/02 01:54:06;;;;;;;;;;;;;;;19.97;100.00;97972.16;5069680;28;19928;-60
2022/06/02 01:56:47;;;;;;;;;;;;;;;19.93;100.00;97974.69;5069540;28;19925;-59
2022/06/02 01:59:20;;;;;;;;;;;;;;;19.94;100.00;97973.59;5073612;28;19980;-59
2022/06/02 02:01:51;;;;;;;;;;;;;;;19.94;100.00;97979.00;5073319;28;19979;-59
2022/06/02 02:04:26;;;;;;;;;;;;;;;20.01;100.00;97984.75;5073126;28;19963;-59
2022/06/02 02:06:58;;;;;;;;;;;;;;;20.02;100.00;97980.94;5077581;28;19998;-59
2022/06/02 02:09:30;;;;;;;;;;;;;;;20.04;100.00;97992.25;5085416;28;19959;-59
2022/06/02 02:11:57;;;;;;;;;;;;;;;19.96;100.00;97993.03;5083388;28;19959;-59
2022/06/02 02:14:42;;;;;;;;;;;;;;;19.94;100.00;97979.00;5085259;28;19931;-59
2022/06/02 02:17:14;;;;;;;;;;;;;;;19.86;100.00;97977.94;5081682;28;19925;-59
2022/06/02 02:19:50;;;;;;;;;;;;;;;19.84;100.00;97984.75;5083954;28;19952;-59
2022/06/02 02:22:19;;;;;;;;;;;;;;;19.77;100.00;97985.28;5085083;28;19931;-58
2022/06/02 02:24:54;;;;;;;;;;;;;;;19.89;100.00;97988.13;5081827;28;19931;-59
2022/06/02 02:27:23;;;;;;;;;;;;;;;19.94;100.00;98000.69;5081528;28;19954;-59
2022/06/02 02:29:55;;;;;;;;;;;;;;;19.87;100.00;97998.47;5081426;28;19948;-59
2022/06/02 02:32:34;;;;;;;;;;;;;;;19.86;100.00;97998.81;5081327;28;19924;-59
2022/06/02 02:35:07;;;;;;;;;;;;;;;19.84;100.00;98003.72;5072967;28;19993;-59
2022/06/02 02:37:38;;;;;;;;;;;;;;;19.86;100.00;98004.22;5072882;28;19924;-59
2022/06/02 02:40:09;;;;;;;;;;;;;;;19.78;100.00;98003.09;5072747;28;19956;-59
2022/06/02 02:42:37;;;;;;;;;;;;;;;19.81;100.00;98005.19;5072669;28;19924;-59
2022/06/02 02:45:08;;;;;;;;;;;;;;;19.79;100.00;98010.13;5078091;28;19987;-59
2022/06/02 02:47:39;;;;;;;;;;;;;;;19.74;100.00;98010.31;5083144;28;19956;-59
2022/06/02 02:50:09;;;;;;;;;;;;;;;19.73;100.00;98010.59;5080853;28;19924;-59
2022/06/02 02:52:42;;;;;;;;;;;;;;;19.75;100.00;98008.38;5082554;28;19980;-59
2022/06/02 02:55:14;;;;;;;;;;;;;;;19.73;100.00;98016.84;5084467;28;19991;-60
2022/06/02 02:57:45;;;;;;;;;;;;;;;19.77;100.00;98014.28;5082135;28;19963;-59
2022/06/02 03:00:18;;;;;;;;;;;;;;;19.74;100.00;98018.44;5080851;28;20101;-59
2022/06/02 03:02:50;;;;;;;;;;;;;;;19.76;100.00;98020.81;5083554;28;19951;-59
2022/06/02 03:05:19;;;;;;;;;;;;;;;19.76;100.00;98023.50;5066272;28;19966;-59
2022/06/02 03:07:49;;;;;;;;;;;;;;;19.81;100.00;98018.72;5081226;28;19924;-59
2022/06/02 03:10:18;;;;;;;;;;;;;;;19.83;100.00;98018.41;5079632;28;19988;-59
2022/06/02 03:12:57;;;;;;;;;;;;;;;19.40;100.00;98013.78;5088472;28;20039;-59
2022/06/02 03:15:28;;;;;;;;;;;;;;;18.93;100.00;98019.25;5084040;28;19956;-59
2022/06/02 03:18:03;;;;;;;;;;;;;;;18.99;100.00;98029.63;5080650;28;19984;-58
2022/06/02 03:20:33;;;;;;;;;;;;;;;19.14;100.00;98031.88;5081064;28;20619;-59
2022/06/02 03:23:06;;;;;;;;;;;;;;;19.19;100.00;98045.25;5083781;28;20211;-58
2022/06/02 03:25:39;;;;;;;;;;;;;;;18.88;100.00;98044.53;5082587;28;19924;-59
2022/06/02 03:28:15;;;;;;;;;;;;;;;18.72;100.00;98046.84;5080218;28;20100;-58
2022/06/02 03:30:47;;;;;;;;;;;;;;;18.98;100.00;98049.66;5082727;28;19964;-59
2022/06/02 03:33:29;;;;;;;;;;;;;;;19.08;100.00;98049.38;5083697;28;19924;-59
2022/06/02 03:36:02;;;;;;;;;;;;;;;19.22;100.00;98055.44;5079971;28;20417;-58
2022/06/02 03:38:36;;;;;;;;;;;;;;;18.94;100.00;98050.63;5080357;28;19925;-58
2022/06/02 03:41:11;;;;;;;;;;;;;;;18.68;100.00;98061.31;5083277;28;20007;-58
2022/06/02 03:43:42;;;;;;;;;;;;;;;18.72;100.00;98063.09;5073154;28;19980;-59
2022/06/02 03:46:14;;;;;;;;;;;;;;;18.84;100.00;98060.63;5080247;28;19997;-59
2022/06/02 03:48:54;;;;;;;;;;;;;;;18.73;100.00;98058.47;5082231;28;19983;-59
2022/06/02 03:51:26;;;;;;;;;;;;;;;18.68;100.00;98069.44;5083503;28;19980;-59
2022/06/02 03:54:03;;;;;;;;;;;;;;;18.97;100.00;98063.53;5080109;28;19921;-59
2022/06/02 03:56:33;;;;;;;;;;;;;;;19.10;100.00;98063.38;5080597;28;20335;-59
2022/06/02 03:59:10;;;;;;;;;;;;;;;19.24;100.00;98066.78;5083402;28;19955;-59
2022/06/02 04:01:37;;;;;;;;;;;;;;;19.15;100.00;98071.38;5081644;28;19984;-59
2022/06/02 04:04:14;;;;;;;;;;;;;;;19.15;100.00;98070.56;5079750;28;19925;-59
2022/06/02 04:06:48;;;;;;;;;;;;;;;19.23;100.00;98072.50;5082019;28;19928;-59
2022/06/02 04:09:26;;;;;;;;;;;;;;;19.36;100.00;98069.69;5083467;28;19947;-59
2022/06/02 04:14:59;;;;;;;;;;;;;;;19.52;100.00;98074.66;5075613;28;19928;-59
2022/06/02 04:17:28;;;;;;;;;;;;;;;19.25;100.00;98076.47;5079758;28;19984;-59
2022/06/02 04:22:56;;;;;;;;;;;;;;;19.30;100.00;98078.25;5079619;28;19956;-59
2022/06/02 04:25:39;;;;;;;;;;;;;;;18.95;100.00;98088.19;5079482;28;19925;-59
2022/06/02 04:28:10;;;;;;;;;;;;;;;18.88;100.00;98077.00;5070986;28;20269;-59
2022/06/02 04:30:42;;;;;;;;;;;;;;;18.93;100.00;98095.03;5070942;28;19925;-58
2022/06/02 04:33:13;;;;;;;;;;;;;;;18.80;100.00;98094.00;5071161;28;19932;-59
2022/06/02 04:35:47;;;;;;;;;;;;;;;18.95;100.00;98096.28;5071036;28;19964;-59
2022/06/02 04:38:19;;;;;;;;;;;;;;;18.95;100.00;98098.19;5070992;28;19955;-60
2022/06/02 04:40:50;;;;;;;;;;;;;;;18.99;100.00;98094.56;5070881;28;19924;-59
2022/06/02 04:43:32;;;;;;;;;;;;;;;18.50;100.00;98092.09;5070684;28;19925;-59
2022/06/02 04:46:07;;;;;;;;;;;;;;;18.19;100.00;98092.03;5078613;28;19994;-58
2022/06/02 04:48:36;;;;;;;;;;;;;;;18.19;100.00;98098.25;5079610;28;19924;-59
2022/06/02 04:51:11;;;;;;;;;;;;;;;18.30;100.00;98099.59;5081975;28;19932;-58
2022/06/02 04:53:42;;;;;;;;;;;;;;;18.27;100.00;98105.59;5080210;28;19925;-58
2022/06/02 04:56:13;;;;;;;;;;;;;;;18.65;100.00;98110.66;5078657;28;19996;-59
2022/06/02 04:58:48;;;;;;;;;;;;;;;18.52;100.00;98106.91;5080744;28;19967;-58
2022/06/02 05:01:23;;;;;;;;;;;;;;;18.77;100.00;98113.56;5082031;28;19980;-58
2022/06/02 05:03:55;;;;;;;;;;;;;;;18.76;100.00;98117.38;5078515;28;20296;-58
2022/06/02 05:06:27;;;;;;;;;;;;;;;18.91;100.00;98118.91;5060630;28;19952;-58
2022/06/02 05:09:00;;;;;;;;;;;;;;;18.68;100.00;98115.44;5078329;28;19978;-59
2022/06/02 05:11:37;;;;;;;;;;;;;;;18.81;100.00;98120.78;5078709;28;19971;-58
2022/06/02 05:14:10;;;;;;;;;;;;;;;18.49;100.00;98120.22;5084611;28;19929;-58
2022/06/02 05:16:43;;;;;;;;;;;;;;;18.52;100.00;98125.03;5079663;28;19933;-59
2022/06/02 05:19:32;;;;;;;;;;;;;;;18.75;100.00;98127.38;5081712;28;19956;-59
2022/06/02 05:22:32;;;;;;;;;;;;;;;19.09;100.00;98129.50;5078130;28;19928;-58
2022/06/02 05:25:18;;;;;;;;;;;;;;;19.28;98.39;98124.59;5069909;28;19947;-60
2022/06/02 05:27:56;;;;;;;;;;;;;;;19.37;96.84;98135.47;5069964;28;19932;-58
2022/06/02 05:30:40;;;;;;;;;;;;;;;19.46;95.57;98132.81;5070007;28;19991;-59
2022/06/02 05:33:15;;;;;;;;;;;;;;;19.58;94.69;98133.00;5072010;28;19925;-59
2022/06/02 05:36:01;;;;;;;;;;;;;;;19.74;93.22;98137.66;5082430;28;19939;-60
2022/06/02 05:38:46;;;;;;;;;;;;;;;19.93;91.98;98140.03;5082602;28;19984;-59
2022/06/02 05:41:20;;;;;;;;;;;;;;;20.05;91.12;98142.16;5086005;28;19963;-60
2022/06/02 05:43:51;;;;;;;;;;;;;;;20.12;90.66;98147.88;5074373;28;19925;-59
2022/06/02 05:46:28;;;;;;;;;;;;;;;20.37;89.11;98139.75;5082194;28;20015;-59
2022/06/02 05:49:01;;;;;;;;;;;;;;;20.13;90.70;98150.28;5081900;28;19924;-59
2022/06/02 05:51:31;;;;;;;;;;;;;;;19.76;93.33;98145.47;5064655;28;19992;-59
2022/06/02 05:54:04;;;;;;;;;;;;;;;20.02;92.67;98145.50;5085350;28;19920;-58
2022/06/02 05:56:36;;;;;;;;;;;;;;;20.44;90.43;98145.50;5084769;28;19964;-58
2022/06/02 05:59:14;;;;;;;;;;;;;;;20.74;88.51;98146.41;5082082;28;19925;-60
2022/06/02 06:01:48;;;;;;;;;;;;;;;20.95;87.33;98143.81;5084077;28;19948;-59
2022/06/02 06:04:31;;;;;;;;;;;;;;;21.14;87.25;98146.94;5067817;28;19925;-58
2022/06/02 06:07:01;;;;;;;;;;;;;;;20.90;89.58;98146.69;5073546;28;19921;-59
2022/06/02 06:09:37;;;;;;;;;;;;;;;20.92;89.91;98149.88;5073367;28;19957;-59
2022/06/02 06:12:30;;;;;;;;;;;;;;;21.12;88.77;98149.19;5075588;28;20028;-59
2022/06/02 06:15:02;;;;;;;;;;;;;;;21.39;87.64;98158.81;5052915;28;19981;-59
2022/06/02 06:17:36;;;;;;;;;;;;;;;21.44;86.90;98164.91;5082020;28;19964;-59
2022/06/02 06:20:06;;;;;;;;;;;;;;;21.57;86.77;98164.97;5084980;28;20618;-59
2022/06/02 06:22:42;;;;;;;;;;;;;;;21.51;86.50;98167.88;5083776;28;19933;-59
2022/06/02 06:25:17;;;;;;;;;;;;;;;21.45;88.12;98160.22;5081468;28;19964;-59
2022/06/02 06:27:50;;;;;;;;;;;;;;;21.73;87.31;98166.00;5084086;28;19928;-59
2022/06/02 06:30:24;;;;;;;;;;;;;;;21.63;87.36;98163.66;5085075;28;19988;-59
2022/06/02 06:33:00;;;;;;;;;;;;;;;21.77;86.97;98166.94;5073058;28;19964;-59
2022/06/02 06:35:38;;;;;;;;;;;;;;;22.01;85.35;98156.25;5072953;28;19952;-59
2022/06/02 06:38:27;;;;;;;;;;;;;;;22.05;84.96;98160.69;5072929;28;19925;-58
2022/06/02 06:41:04;;;;;;;;;;;;;;;21.92;85.04;98160.94;5081091;28;19975;-58
2022/06/02 06:43:40;;;;;;;;;;;;;;;22.15;85.32;98169.59;5075513;28;19931;-58
2022/06/02 06:46:16;;;;;;;;;;;;;;;22.23;83.62;98161.34;5081131;28;19983;-58
2022/06/02 06:48:44;;;;;;;;;;;;;;;21.90;85.71;98168.66;5083291;28;19928;-58
2022/06/02 06:51:17;;;;;;;;;;;;;;;21.93;86.33;98170.69;5084433;28;19925;-58
2022/06/02 06:53:50;;;;;;;;;;;;;;;21.99;86.94;98167.47;5081840;28;20004;-58
2022/06/02 06:56:21;;;;;;;;;;;;;;;21.79;87.59;98176.34;5080792;28;19925;-58
2022/06/02 06:59:00;;;;;;;;;;;;;;;21.71;88.56;98179.13;5083852;28;19960;-58
2022/06/02 07:01:32;;;;;;;;;;;;;;;21.78;87.50;98182.13;5083821;28;19970;-59
2022/06/02 07:04:06;;;;;;;;;;;;;;;21.74;89.47;98170.31;5080524;28;19964;-59
2022/06/02 07:06:38;;;;;;;;;;;;;;;22.24;87.13;98173.84;5064037;28;19931;-58
2022/06/02 07:09:09;;;;;;;;;;;;;;;22.02;87.51;98172.25;5083977;28;19963;-59
2022/06/02 07:14:28;;;;;;;;;;;;;;;22.47;85.30;98168.81;5080450;28;19925;-59
2022/06/02 07:16:56;;;;;;;;;;;;;;;22.57;84.91;98160.25;5071916;28;19925;-59
2022/06/02 07:19:28;;;;;;;;;;;;;;;22.81;83.90;98171.25;5072176;28;19947;-58
2022/06/02 07:22:00;;;;;;;;;;;;;;;22.90;83.86;98173.91;5080099;28;19988;-58
2022/06/02 07:24:34;;;;;;;;;;;;;;;22.45;82.36;98174.63;5080439;28;19988;-58
2022/06/02 07:27:06;;;;;;;;;;;;;;;22.49;85.58;98166.59;5083726;28;19963;-59
2022/06/02 07:29:47;;;;;;;;;;;;;;;23.01;83.45;98166.88;5082564;28;20000;-59
2022/06/02 07:32:34;;;;;;;;;;;;;;;22.15;76.41;98169.59;5080151;28;19925;-58
2022/06/02 07:35:28;;;;;;;;;;;;;;;22.14;82.57;98167.97;5071678;28;19925;-58
2022/06/02 07:37:57;;;;;;;;;;;;;;;22.85;80.48;98171.38;5040258;28;19925;-58
2022/06/02 07:40:38;;;;;;;;;;;;;;;22.40;77.33;98174.84;5079978;28;19985;-58
2022/06/02 07:43:19;;;;;;;;;;;;;;;22.05;78.85;98171.56;5074446;28;20015;-58
2022/06/02 07:45:54;;;;;;;;;;;;;;;22.55;82.39;98163.31;5079877;28;19935;-57
2022/06/02 07:48:30;;;;;;;;;;;;;;;22.73;81.10;98176.78;5079784;28;19932;-58
2022/06/02 07:51:04;;;;;;;;;;;;;;;22.94;80.16;98175.59;5071238;28;20019;-58
2022/06/02 07:53:36;;;;;;;;;;;;;;;22.72;79.00;98180.63;5071485;28;19924;-58
2022/06/02 07:56:06;;;;;;;;;;;;;;;21.96;79.22;98184.44;5070662;28;19992;-58
2022/06/02 07:58:40;;;;;;;;;;;;;;;21.55;80.28;98178.88;5071320;28;19936;-58
2022/06/02 08:01:12;;;;;;;;;;;;;;;21.93;83.48;98178.88;5071311;28;19959;-58
2022/06/02 08:03:48;;;;;;;;;;;;;;;21.43;83.12;98179.59;5071241;28;19928;-58
2022/06/02 08:06:19;;;;;;;;;;;;;;;22.16;84.11;98171.97;5071200;28;19925;-58
2022/06/02 08:08:53;;;;;;;;;;;;;;;22.49;82.22;98181.00;5071058;28;19929;-58
2022/06/02 08:11:25;;;;;;;;;;;;;;;22.92;78.29;98177.06;5071146;28;19925;-58
2022/06/02 08:13:59;;;;;;;;;;;;;;;22.92;76.12;98183.31;5084630;28;19924;-57
2022/06/02 08:16:27;;;;;;;;;;;;;;;22.92;73.86;98187.97;5079492;28;19925;-58
2022/06/02 08:19:05;;;;;;;;;;;;;;;22.25;70.82;98186.28;5070860;28;19993;-60
2022/06/02 08:21:36;;;;;;;;;;;;;;;22.67;77.31;98191.75;5070712;28;20427;-57
2022/06/02 08:24:19;;;;;;;;;;;;;;;23.11;74.34;98180.06;5070839;28;19948;-58
2022/06/02 08:26:49;;;;;;;;;;;;;;;23.32;71.99;98179.97;5070701;28;19991;-58
2022/06/02 08:29:22;;;;;;;;;;;;;;;23.15;72.77;98185.66;5070759;28;19952;-57
2022/06/02 08:32:03;;;;;;;;;;;;;;;23.40;71.60;98192.72;5070648;28;19928;-58
2022/06/02 08:34:36;;;;;;;;;;;;;;;23.32;67.83;98180.78;5070674;28;20030;-58
2022/06/02 08:37:07;;;;;;;;;;;;;;;23.04;68.65;98193.44;5070566;28;19978;-57
2022/06/02 08:39:39;;;;;;;;;;;;;;;22.83;69.17;98193.50;5070339;28;19984;-58
2022/06/02 08:42:27;;;;;;;;;;;;;;;22.46;69.52;98198.00;5070252;28;19984;-57
2022/06/02 08:45:14;;;;;;;;;;;;;;;23.26;70.84;98193.03;5078700;28;19968;-57
2022/06/02 08:47:56;;;;;;;;;;;;;;;23.82;67.67;98198.75;5080956;28;19996;-59
2022/06/02 08:50:36;;;;;;;;;;;;;;;23.66;67.32;98201.38;5082118;28;20030;-60
2022/06/02 08:53:27;;;;;;;;;;;;;;;23.28;65.61;98190.75;5070331;28;19931;-58
2022/06/02 08:56:13;;;;;;;;;;;;;;;22.96;67.63;98184.22;5081927;28;20019;-60
2022/06/02 08:58:54;;;;;;;;;;;;;;;23.20;70.49;98188.13;5080027;28;20012;-58
2022/06/02 09:01:29;;;;;;;;;;;;;;;23.23;65.67;98193.72;5078543;28;20031;-59
2022/06/02 09:04:23;;;;;;;;;;;;;;;22.82;69.10;98197.34;5078317;28;19959;-58
2022/06/02 09:06:59;;;;;;;;;;;;;;;23.22;72.22;98194.03;5056359;28;19992;-58
2022/06/02 09:09:53;;;;;;;;;;;;;;;23.04;72.75;98186.06;5081538;28;19924;-59
2022/06/02 09:12:34;;;;;;;;;;;;;;;23.39;69.91;98196.56;5065019;28;19932;-59
2022/06/02 09:15:12;;;;;;;;;;;;;;;23.54;65.91;98198.66;5078255;28;19967;-59
2022/06/02 09:17:45;;;;;;;;;;;;;;;23.03;65.49;98198.09;5080221;28;19982;-58
2022/06/02 09:20:14;;;;;;;;;;;;;;;22.55;65.77;98193.25;5081774;28;20372;-59
2022/06/02 09:22:50;;;;;;;;;;;;;;;22.85;70.13;98188.50;5079505;28;19924;-58
2022/06/02 09:25:22;;;;;;;;;;;;;;;23.03;64.81;98200.00;5078314;28;19931;-58
2022/06/02 09:27:53;;;;;;;;;;;;;;;23.49;64.66;98202.38;5081431;28;19960;-58
2022/06/02 09:30:26;;;;;;;;;;;;;;;23.38;63.83;98189.53;5081837;28;19931;-58
2022/06/02 09:33:00;;;;;;;;;;;;;;;23.47;65.16;98193.75;5078170;28;19992;-58
2022/06/02 09:35:29;;;;;;;;;;;;;;;23.70;63.46;98196.03;5078351;28;19924;-59
2022/06/02 09:38:25;;;;;;;;;;;;;;;23.33;60.56;98196.00;5081835;28;19977;-58
2022/06/02 09:40:55;;;;;;;;;;;;;;;23.90;64.12;98206.81;5078373;28;19988;-58
2022/06/02 09:43:45;;;;;;;;;;;;;;;24.08;61.52;98197.25;5078232;28;19960;-60
2022/06/02 09:46:23;;;;;;;;;;;;;;;24.18;60.97;98215.09;5078188;28;19925;-60
2022/06/02 09:48:55;;;;;;;;;;;;;;;24.35;61.52;98212.13;5081120;28;19996;-59
2022/06/02 09:51:35;;;;;;;;;;;;;;;24.39;59.56;98213.00;5081563;28;20447;-59
2022/06/02 09:54:28;;;;;;;;;;;;;;;24.46;59.81;98206.97;5069642;28;20004;-59
2022/06/02 09:57:55;;;;;;;;;;;;;;;24.20;57.20;98210.13;5049270;28;19984;-59
2022/06/02 10:00:04;;;;;;;;;;;;;;;24.17;58.93;98211.56;5078070;28;20039;-59
2022/06/02 10:02:34;;;;;;;;;;;;;;;24.02;57.53;98212.25;5060527;28;19932;-59
2022/06/02 10:05:13;;;;;;;;;;;;;;;23.75;58.76;98203.97;5081466;28;19925;-58
2022/06/02 10:07:44;;;;;;;;;;;;;;;23.32;57.83;98199.84;5079493;28;19930;-59
2022/06/02 10:10:18;;;;;;;;;;;;;;;23.06;59.66;98199.34;5077821;28;19936;-58
2022/06/02 10:12:58;;;;;;;;;;;;;;;23.34;59.59;98203.03;5085843;28;19988;-58
2022/06/02 10:15:47;;;;;;;;;;;;;;;22.91;59.66;98203.50;5081344;28;19936;-58
2022/06/02 10:18:20;;;;;;;;;;;;;;;22.65;59.74;98211.16;5078929;28;20561;-59
2022/06/02 10:20:56;;;;;;;;;;;;;;;22.63;60.34;98207.09;5084344;28;19925;-59
2022/06/02 10:23:35;;;;;;;;;;;;;;;23.46;63.45;98205.00;5085016;28;19920;-58
2022/06/02 10:26:07;;;;;;;;;;;;;;;23.85;61.85;98204.34;5081738;28;19984;-59
2022/06/02 10:28:59;;;;;;;;;;;;;;;24.03;59.81;98207.59;5082813;28;19925;-59
2022/06/02 10:31:53;;;;;;;;;;;;;;;23.70;57.60;98207.75;5084739;28;19932;-59
2022/06/02 10:34:49;;;;;;;;;;;;;;;23.62;55.71;98206.72;5081451;28;19932;-59
2022/06/02 10:37:34;;;;;;;;;;;;;;;23.85;58.97;98206.25;5081220;28;19936;-58
2022/06/02 10:40:24;;;;;;;;;;;;;;;24.00;57.84;98206.34;5068860;28;19924;-58
2022/06/02 10:43:01;;;;;;;;;;;;;;;24.05;56.58;98197.13;5068981;28;19978;-58
2022/06/02 10:45:58;;;;;;;;;;;;;;;23.68;54.93;98199.09;5084122;28;19992;-58
2022/06/02 10:48:46;;;;;;;;;;;;;;;23.86;56.06;98200.44;5080938;28;19935;-58
2022/06/02 10:51:22;;;;;;;;;;;;;;;23.52;53.95;98190.03;5080818;28;20004;-59
2022/06/02 10:54:08;;;;;;;;;;;;;;;23.20;53.78;98199.84;5083874;28;19988;-59
2022/06/02 10:56:45;;;;;;;;;;;;;;;23.48;56.12;98189.91;5082777;28;19928;-59
2022/06/02 10:59:42;;;;;;;;;;;;;;;23.76;55.77;98197.41;5080681;28;19996;-58
2022/06/02 11:02:23;;;;;;;;;;;;;;;23.31;54.38;98192.81;5080663;28;19988;-58
2022/06/02 11:05:07;;;;;;;;;;;;;;;23.39;56.26;98191.13;5083898;28;19924;-59
2022/06/02 11:07:45;;;;;;;;;;;;;;;23.95;57.17;98189.44;5082844;28;19925;-59
2022/06/02 11:10:22;;;;;;;;;;;;;;;24.04;55.73;98190.91;5080622;28;19968;-59
2022/06/02 11:13:10;;;;;;;;;;;;;;;24.05;52.31;98194.41;5080423;28;19925;-58
2022/06/02 11:15:52;;;;;;;;;;;;;;;24.00;52.53;98191.91;5079663;28;19971;-59
2022/06/02 11:18:30;;;;;;;;;;;;;;;24.01;53.64;98193.50;5079649;28;19928;-59
2022/06/02 11:21:18;;;;;;;;;;;;;;;24.26;53.77;98186.91;5079631;28;19936;-58
2022/06/02 11:24:00;;;;;;;;;;;;;;;24.44;54.52;98180.00;5082127;28;19959;-59
2022/06/02 11:26:41;;;;;;;;;;;;;;;24.64;54.47;98180.94;5080331;28;20470;-59
2022/06/02 11:29:37;;;;;;;;;;;;;;;24.62;54.77;98177.78;5079021;28;20004;-59
2022/06/02 11:32:17;;;;;;;;;;;;;;;24.76;54.47;98178.16;5071057;28;19955;-59
2022/06/02 11:34:54;;;;;;;;;;;;;;;24.80;53.66;98179.06;5070987;28;19925;-59
2022/06/02 11:37:40;;;;;;;;;;;;;;;24.79;53.17;98157.56;5071156;28;19925;-59
2022/06/02 11:40:16;;;;;;;;;;;;;;;24.85;53.07;98167.88;5070980;28;20442;-59
2022/06/02 11:42:54;;;;;;;;;;;;;;;25.02;52.46;98166.78;5078659;28;19992;-59
2022/06/02 11:45:33;;;;;;;;;;;;;;;24.98;52.18;98158.50;5082587;28;19952;-59
2022/06/02 11:48:09;;;;;;;;;;;;;;;25.09;52.52;98161.50;5077861;28;19929;-59
2022/06/02 11:50:57;;;;;;;;;;;;;;;24.85;52.12;98154.22;5080289;28;20016;-59
2022/06/02 11:53:53;;;;;;;;;;;;;;;25.00;51.45;98161.69;5077328;28;19924;-59
2022/06/02 11:56:29;;;;;;;;;;;;;;;25.17;51.19;98161.31;5017049;28;20016;-59
2022/06/02 11:59:21;;;;;;;;;;;;;;;25.13;48.16;98160.44;5067939;28;19929;-59
2022/06/02 12:02:15;;;;;;;;;;;;;;;24.53;47.19;98163.47;5081585;28;19924;-59
2022/06/02 12:04:59;;;;;;;;;;;;;;;24.45;50.43;98165.19;5043538;28;19955;-59
2022/06/02 12:07:43;;;;;;;;;;;;;;;24.57;51.86;98164.38;5078532;28;20032;-59
2022/06/02 12:10:40;;;;;;;;;;;;;;;24.76;52.16;98161.00;5070091;28;19975;-59
2022/06/02 12:13:33;;;;;;;;;;;;;;;24.73;52.22;98148.03;5072860;28;19971;-59
2022/06/02 12:16:17;;;;;;;;;;;;;;;24.93;51.15;98152.50;5060725;28;19925;-59
2022/06/02 12:18:54;;;;;;;;;;;;;;;24.33;52.21;98154.34;5080519;28;19988;-59
2022/06/02 12:21:27;;;;;;;;;;;;;;;24.51;52.95;98147.44;5081937;28;19924;-59
2022/06/02 12:24:08;;;;;;;;;;;;;;;24.68;52.81;98146.34;5078319;28;19925;-59
2022/06/02 12:26:44;;;;;;;;;;;;;;;24.64;51.89;98148.97;5079484;28;19932;-59
2022/06/02 12:29:20;;;;;;;;;;;;;;;24.65;52.42;98136.13;5081752;28;19924;-60
2022/06/02 12:31:55;;;;;;;;;;;;;;;24.77;52.23;98136.03;5078769;28;19935;-58
2022/06/02 12:34:40;;;;;;;;;;;;;;;24.80;51.50;98140.81;5078186;28;19924;-60
2022/06/02 12:37:18;;;;;;;;;;;;;;;24.84;50.29;98135.47;5053496;28;19971;-60
2022/06/02 12:39:56;;;;;;;;;;;;;;;24.97;50.27;98135.06;5080598;28;19921;-59
2022/06/02 12:42:52;;;;;;;;;;;;;;;25.07;49.03;98134.50;5081168;28;20420;-60
2022/06/02 12:45:28;;;;;;;;;;;;;;;25.18;48.44;98134.78;5078173;28;19980;-60
2022/06/02 12:48:20;;;;;;;;;;;;;;;25.25;46.36;98126.78;5077959;28;20091;-59
2022/06/02 12:50:58;;;;;;;;;;;;;;;25.06;46.98;98141.16;5080638;28;19932;-59
2022/06/02 12:53:37;;;;;;;;;;;;;;;24.99;49.57;98134.69;5081390;28;19935;-60
2022/06/02 12:56:15;;;;;;;;;;;;;;;25.04;48.96;98124.28;5069701;28;20196;-57
2022/06/02 12:58:57;;;;;;;;;;;;;;;24.84;47.61;98135.47;5069662;28;19935;-58
2022/06/02 13:01:33;;;;;;;;;;;;;;;24.53;46.30;98147.09;5069672;28;19928;-59
2022/06/02 13:04:20;;;;;;;;;;;;;;;24.50;47.00;98145.06;5077651;28;19988;-59
2022/06/02 13:07:20;;;;;;;;;;;;;;;24.43;49.79;98142.13;5062688;28;20024;-59
2022/06/02 13:10:04;;;;;;;;;;;;;;;24.82;48.86;98143.22;5078188;28;19968;-59
2022/06/02 13:12:49;;;;;;;;;;;;;;;24.83;48.33;98139.34;5088674;28;19960;-59
2022/06/02 13:15:23;;;;;;;;;;;;;;;24.76;45.47;98136.41;5081010;28;19925;-59
2022/06/02 13:18:01;;;;;;;;;;;;;;;24.73;45.32;98130.47;5077700;28;19928;-59
2022/06/02 13:20:46;;;;;;;;;;;;;;;24.71;46.49;98134.72;5077743;28;19925;-60
2022/06/02 13:23:27;;;;;;;;;;;;;;;24.77;44.87;98135.25;5080273;28;19960;-59
2022/06/02 13:26:01;;;;;;;;;;;;;;;24.74;44.86;98125.81;5069245;28;19929;-59
2022/06/02 13:28:46;;;;;;;;;;;;;;;24.59;45.78;98127.38;5069167;28;19962;-60
2022/06/02 13:31:31;;;;;;;;;;;;;;;24.87;46.37;98118.38;5069062;28;19925;-59
2022/06/02 13:34:29;;;;;;;;;;;;;;;24.91;47.24;98114.59;5069223;28;19988;-59
2022/06/02 13:37:02;;;;;;;;;;;;;;;25.23;43.53;98105.25;5073197;28;19956;-59
2022/06/02 13:39:56;;;;;;;;;;;;;;;25.33;43.98;98105.84;5080312;28;19925;-59
2022/06/02 13:42:42;;;;;;;;;;;;;;;25.32;44.42;98110.53;5077182;28;20001;-59
2022/06/02 13:45:23;;;;;;;;;;;;;;;25.47;42.55;98114.41;5068868;28;19935;-59
2022/06/02 13:48:19;;;;;;;;;;;;;;;25.28;45.17;98106.13;5068688;28;19967;-59